Time;durP1;ratioP1;P1;durP2;ratioP2;P2;SDS_P1;SDS_P2;PMS_P1;PMS_P2;Temp;Humidity;BMP_temperature;BMP_pressure;BME280_temperature;BME280_humidity;BME280_pressure;Samples;Min_cycle;Max_cycle;Signal;HPM_P1;HPM_P2
2021/06/08 00:00:06;;;;;;;14.70;13.60;;;20.00;96.80;;;;;;5029777;28;20636;-52
2021/06/08 00:02:32;;;;;;;15.70;14.53;;;20.00;96.90;;;;;;5030040;28;20659;-52
2021/06/08 00:04:59;;;;;;;16.33;14.80;;;20.00;96.90;;;;;;5030785;28;20634;-50
2021/06/08 00:07:26;;;;;;;15.37;14.10;;;20.00;96.80;;;;;;5030327;28;20626;-51
2021/06/08 00:09:53;;;;;;;16.27;14.93;;;19.90;96.80;;;;;;5035783;28;20745;-51
2021/06/08 00:12:20;;;;;;;15.33;14.03;;;19.90;96.80;;;;;;5041442;28;20647;-51
2021/06/08 00:14:47;;;;;;;18.33;16.73;;;19.90;96.70;;;;;;5029471;28;20663;-51
2021/06/08 00:17:15;;;;;;;16.70;15.40;;;19.90;96.80;;;;;;5027951;28;20727;-51
2021/06/08 00:19:41;;;;;;;16.60;15.20;;;19.90;96.80;;;;;;5029737;28;21181;-51
2021/06/08 00:22:09;;;;;;;15.27;14.03;;;19.90;96.70;;;;;;5030048;28;20631;-51
2021/06/08 00:24:35;;;;;;;15.17;13.90;;;19.90;96.80;;;;;;5029204;28;20659;-51
2021/06/08 00:27:03;;;;;;;16.17;14.70;;;19.80;96.70;;;;;;5029718;28;20681;-52
2021/06/08 00:29:29;;;;;;;16.10;14.83;;;19.80;96.70;;;;;;5029302;28;21202;-51
2021/06/08 00:31:56;;;;;;;17.03;15.57;;;19.80;96.70;;;;;;5028346;28;20659;-52
2021/06/08 00:34:24;;;;;;;16.47;15.00;;;19.80;96.70;;;;;;5030560;28;20666;-51
2021/06/08 00:36:51;;;;;;;17.43;15.93;;;19.80;96.70;;;;;;5029836;28;20712;-51
2021/06/08 00:39:18;;;;;;;19.00;15.33;;;19.80;96.70;;;;;;5047779;28;21208;-52
2021/06/08 00:41:44;;;;;;;14.90;13.60;;;19.80;96.70;;;;;;5049387;28;20707;-52
2021/06/08 00:44:13;;;;;;;17.00;15.57;;;19.80;96.70;;;;;;5038317;28;20836;-51
2021/06/08 00:46:40;;;;;;;16.77;15.27;;;19.80;96.70;;;;;;5029436;28;20688;-52
2021/06/08 00:49:07;;;;;;;15.23;13.93;;;19.80;96.70;;;;;;5029965;28;20673;-51
2021/06/08 00:51:35;;;;;;;15.97;14.60;;;19.70;96.60;;;;;;5030153;28;20666;-52
2021/06/08 00:54:06;;;;;;;15.93;14.27;;;19.80;96.70;;;;;;5029453;28;20679;-51
2021/06/08 00:56:33;;;;;;;16.80;15.40;;;19.70;96.60;;;;;;5027731;28;20631;-51
2021/06/08 00:58:59;;;;;;;16.00;14.70;;;19.70;96.70;;;;;;5029510;28;20623;-51
2021/06/08 01:01:26;;;;;;;16.73;15.33;;;19.70;96.70;;;;;;5029124;28;20635;-50
2021/06/08 01:03:53;;;;;;;15.07;13.67;;;19.70;96.70;;;;;;5029188;28;20732;-51
2021/06/08 01:06:20;;;;;;;14.70;13.50;;;19.70;96.80;;;;;;5039476;28;20638;-51
2021/06/08 01:08:48;;;;;;;17.73;16.20;;;19.70;96.80;;;;;;5045851;28;20652;-51
2021/06/08 01:11:14;;;;;;;14.27;13.27;;;19.70;96.80;;;;;;5029397;28;20692;-51
2021/06/08 01:13:41;;;;;;;15.53;14.23;;;19.70;96.80;;;;;;5028964;28;20946;-51
2021/06/08 01:16:08;;;;;;;16.03;14.63;;;19.70;96.80;;;;;;5029102;28;20643;-50
2021/06/08 01:18:35;;;;;;;16.20;14.77;;;19.70;96.90;;;;;;5029097;28;20599;-50
2021/06/08 01:21:03;;;;;;;14.80;13.50;;;19.60;96.80;;;;;;5029020;28;20631;-52
2021/06/08 01:23:30;;;;;;;15.87;14.30;;;19.60;96.90;;;;;;5029059;28;20655;-52
2021/06/08 01:25:57;;;;;;;16.57;15.27;;;19.60;96.90;;;;;;5031348;28;20673;-50
2021/06/08 01:28:24;;;;;;;15.40;14.20;;;19.60;96.90;;;;;;5032983;28;20627;-51
2021/06/08 01:30:51;;;;;;;15.77;13.73;;;19.60;96.90;;;;;;5033101;28;20791;-51
2021/06/08 01:33:18;;;;;;;16.23;14.83;;;19.60;96.90;;;;;;5043047;28;20709;-52
2021/06/08 01:35:45;;;;;;;15.17;13.87;;;19.60;96.90;;;;;;5052528;28;20621;-52
2021/06/08 01:38:13;;;;;;;14.77;13.37;;;19.60;97.00;;;;;;5052629;28;20692;-51
2021/06/08 01:40:40;;;;;;;16.03;14.17;;;19.60;96.90;;;;;;5053361;28;20618;-51
2021/06/08 01:43:07;;;;;;;15.97;14.70;;;19.60;97.00;;;;;;5040441;28;20662;-51
2021/06/08 01:45:33;;;;;;;14.87;13.67;;;19.60;97.10;;;;;;5032910;28;20645;-52
2021/06/08 01:48:00;;;;;;;14.80;13.43;;;19.60;97.00;;;;;;5032806;28;21189;-50
2021/06/08 01:50:27;;;;;;;14.20;13.10;;;19.60;97.00;;;;;;5032604;28;20646;-51
2021/06/08 01:52:55;;;;;;;14.43;13.33;;;19.60;97.00;;;;;;5032501;28;20725;-51
2021/06/08 01:55:25;;;;;;;14.87;13.67;;;19.50;96.90;;;;;;5032831;28;20694;-52
2021/06/08 01:57:52;;;;;;;14.73;13.33;;;19.50;96.90;;;;;;5032705;28;20710;-51
2021/06/08 02:00:23;;;;;;;14.47;13.07;;;19.50;96.90;;;;;;5034843;28;20670;-52
2021/06/08 02:02:55;;;;;;;14.70;13.50;;;19.50;96.90;;;;;;5052904;28;20658;-51
2021/06/08 02:05:34;;;;;;;14.70;13.50;;;19.50;96.90;;;;;;5036365;28;20631;-52
2021/06/08 02:08:06;;;;;;;16.47;14.97;;;19.50;96.90;;;;;;5032226;28;20693;-52
2021/06/08 02:10:53;;;;;;;20.87;16.63;;;19.50;97.00;;;;;;5032968;28;20631;-52
2021/06/08 02:13:27;;;;;;;14.70;13.30;;;19.50;97.00;;;;;;5033457;28;21058;-52
2021/06/08 02:15:57;;;;;;;15.27;13.97;;;19.50;97.00;;;;;;5047487;28;20695;-52
2021/06/08 02:18:25;;;;;;;16.37;14.97;;;19.50;97.00;;;;;;5052000;28;20637;-52
2021/06/08 02:20:52;;;;;;;16.97;15.37;;;19.50;97.10;;;;;;5032525;28;20692;-52
2021/06/08 02:23:20;;;;;;;16.40;15.00;;;19.50;97.00;;;;;;5032549;28;20682;-52
2021/06/08 02:25:49;;;;;;;15.47;14.27;;;19.50;97.00;;;;;;5031528;28;20627;-52
2021/06/08 02:28:17;;;;;;;16.53;15.07;;;19.40;97.00;;;;;;5031901;28;20631;-51
2021/06/08 02:30:44;;;;;;;17.57;16.07;;;19.40;97.10;;;;;;5032315;28;20688;-52
2021/06/08 02:33:11;;;;;;;15.00;13.90;;;19.40;97.10;;;;;;5031778;28;20678;-52
2021/06/08 02:35:38;;;;;;;15.00;13.90;;;19.40;97.10;;;;;;5031159;28;20634;-51
2021/06/08 02:38:04;;;;;;;14.73;13.50;;;19.40;97.20;;;;;;5031158;28;20623;-52
2021/06/08 02:40:31;;;;;;;14.70;13.60;;;19.50;97.20;;;;;;5031466;28;20639;-51
2021/06/08 02:42:59;;;;;;;15.07;13.60;;;19.40;97.10;;;;;;5031118;28;21219;-52
2021/06/08 02:45:28;;;;;;;14.47;13.40;;;19.40;97.20;;;;;;5032104;28;20630;-52
2021/06/08 02:47:54;;;;;;;15.20;14.10;;;19.40;97.20;;;;;;5031869;28;20712;-52
2021/06/08 02:50:23;;;;;;;16.50;15.27;;;19.40;97.20;;;;;;5031636;28;20780;-52
2021/06/08 02:52:53;;;;;;;16.33;15.03;;;19.40;97.20;;;;;;5031503;28;20783;-52
2021/06/08 02:55:21;;;;;;;15.47;14.17;;;19.40;97.20;;;;;;5031043;28;20635;-51
2021/06/08 02:57:49;;;;;;;16.10;14.67;;;19.50;97.30;;;;;;5032491;28;20631;-52
2021/06/08 03:00:17;;;;;;;15.43;14.03;;;19.40;97.30;;;;;;5036068;28;20995;-51
2021/06/08 03:02:45;;;;;;;14.90;13.60;;;19.50;97.40;;;;;;5031174;28;20716;-52
2021/06/08 03:05:15;;;;;;;15.83;14.50;;;19.40;97.30;;;;;;5032480;28;20929;-52
2021/06/08 03:07:43;;;;;;;15.10;13.83;;;19.40;97.40;;;;;;5031436;28;21062;-52
2021/06/08 03:10:11;;;;;;;15.43;14.23;;;19.40;97.50;;;;;;5031364;28;20682;-52
2021/06/08 03:12:39;;;;;;;17.27;15.77;;;19.40;97.50;;;;;;5035493;28;20781;-52
2021/06/08 03:15:07;;;;;;;14.50;13.10;;;19.40;97.40;;;;;;5011549;28;20628;-52
2021/06/08 03:17:33;;;;;;;15.87;14.60;;;19.40;97.50;;;;;;5016837;28;20663;-52
2021/06/08 03:20:04;;;;;;;15.20;13.93;;;19.40;97.50;;;;;;5031602;28;20623;-52
2021/06/08 03:22:31;;;;;;;15.37;14.23;;;19.40;97.40;;;;;;5031402;28;20646;-52
2021/06/08 03:24:58;;;;;;;15.73;14.53;;;19.40;97.40;;;;;;5031162;28;20980;-52
2021/06/08 03:27:25;;;;;;;16.20;14.87;;;19.40;97.50;;;;;;5031933;28;20681;-52
2021/06/08 03:29:52;;;;;;;14.00;13.00;;;19.40;97.60;;;;;;5029577;28;21117;-52
2021/06/08 03:32:20;;;;;;;15.13;13.87;;;19.40;97.60;;;;;;5031415;28;20630;-52
2021/06/08 03:34:47;;;;;;;16.77;15.27;;;19.40;97.70;;;;;;5034858;28;20858;-52
2021/06/08 03:37:15;;;;;;;17.13;15.47;;;19.40;97.60;;;;;;5050334;28;21207;-52
2021/06/08 03:39:42;;;;;;;14.73;13.53;;;19.40;97.60;;;;;;5039080;28;21019;-51
2021/06/08 03:42:09;;;;;;;18.27;16.57;;;19.40;97.60;;;;;;5031709;28;21159;-52
2021/06/08 03:44:35;;;;;;;16.13;14.30;;;19.40;97.60;;;;;;5030534;28;20667;-52
2021/06/08 03:47:03;;;;;;;15.00;13.80;;;19.40;97.70;;;;;;5030344;28;21245;-52
2021/06/08 03:49:29;;;;;;;14.73;13.33;;;19.30;97.70;;;;;;5030769;28;20659;-52
2021/06/08 03:51:56;;;;;;;14.30;13.00;;;19.40;97.80;;;;;;5035163;28;21172;-52
2021/06/08 03:54:24;;;;;;;16.50;15.20;;;19.30;97.70;;;;;;5038479;28;20678;-52
2021/06/08 03:56:52;;;;;;;16.13;14.80;;;19.40;97.80;;;;;;5029707;28;20692;-52
2021/06/08 03:59:21;;;;;;;16.33;15.00;;;19.30;97.80;;;;;;5042110;28;20688;-52
2021/06/08 04:01:48;;;;;;;17.63;16.33;;;19.30;97.70;;;;;;5030992;28;20681;-52
2021/06/08 04:04:15;;;;;;;15.93;14.63;;;19.30;97.80;;;;;;5030308;28;20647;-52
2021/06/08 04:06:42;;;;;;;18.20;16.60;;;19.30;97.90;;;;;;5030128;28;20646;-51
2021/06/08 04:09:09;;;;;;;17.57;16.07;;;19.30;97.90;;;;;;5028545;28;20701;-52
2021/06/08 04:11:37;;;;;;;16.60;15.10;;;19.30;97.80;;;;;;5030894;28;20677;-53
2021/06/08 04:14:04;;;;;;;17.17;15.77;;;19.30;97.80;;;;;;5032993;28;20691;-51
2021/06/08 04:16:33;;;;;;;17.00;15.30;;;19.30;98.20;;;;;;5029930;28;20811;-53
2021/06/08 04:18:59;;;;;;;15.87;14.60;;;19.30;97.80;;;;;;5029993;28;20658;-50
2021/06/08 04:21:26;;;;;;;16.77;15.40;;;19.30;97.90;;;;;;5032315;28;20671;-51
2021/06/08 04:23:57;;;;;;;15.47;14.17;;;19.30;97.90;;;;;;5029841;28;21011;-51
2021/06/08 04:26:24;;;;;;;15.57;14.27;;;19.30;97.90;;;;;;5030278;28;20647;-52
2021/06/08 04:28:52;;;;;;;15.57;14.27;;;19.30;98.00;;;;;;5029750;28;20989;-52
2021/06/08 04:31:20;;;;;;;16.53;15.23;;;19.30;98.00;;;;;;5029447;28;21000;-52
2021/06/08 04:33:47;;;;;;;16.07;14.70;;;19.30;98.00;;;;;;5028854;28;20667;-52
2021/06/08 04:36:14;;;;;;;16.67;15.37;;;19.30;98.00;;;;;;5027423;28;20653;-52
2021/06/08 04:38:40;;;;;;;18.50;16.57;;;19.40;98.00;;;;;;5029131;28;20631;-52
2021/06/08 04:41:07;;;;;;;16.73;15.40;;;19.40;98.00;;;;;;5029819;28;20717;-52
2021/06/08 04:43:34;;;;;;;16.57;15.27;;;19.30;98.00;;;;;;5029413;28;20685;-51
2021/06/08 04:46:03;;;;;;;17.07;15.47;;;19.40;98.00;;;;;;5029589;28;20643;-51
2021/06/08 04:48:29;;;;;;;16.03;14.37;;;19.40;98.00;;;;;;5029416;28;20761;-50
2021/06/08 04:50:56;;;;;;;17.50;16.00;;;19.40;98.00;;;;;;5029559;28;20634;-52
2021/06/08 04:53:23;;;;;;;16.27;14.97;;;19.40;98.00;;;;;;5033080;28;20729;-52
2021/06/08 04:55:50;;;;;;;17.93;16.43;;;19.30;97.90;;;;;;5029184;28;20623;-52
2021/06/08 04:58:18;;;;;;;16.13;14.63;;;19.30;97.90;;;;;;5045013;28;20756;-52
2021/06/08 05:00:49;;;;;;;15.73;14.20;;;19.40;98.00;;;;;;5047056;28;21256;-52
2021/06/08 05:03:18;;;;;;;15.67;14.27;;;19.30;97.90;;;;;;5048458;28;20997;-52
2021/06/08 05:05:48;;;;;;;17.73;16.13;;;19.30;98.00;;;;;;5028483;28;20689;-52
2021/06/08 05:08:18;;;;;;;15.10;13.97;;;19.30;98.00;;;;;;5029590;28;20982;-52
2021/06/08 05:10:49;;;;;;;15.60;13.80;;;19.40;98.10;;;;;;5029458;28;20692;-52
2021/06/08 05:13:16;;;;;;;15.37;14.07;;;19.40;98.10;;;;;;5029192;28;20873;-52
2021/06/08 05:15:42;;;;;;;17.40;14.30;;;19.40;98.00;;;;;;5028827;28;20692;-53
2021/06/08 05:18:12;;;;;;;15.07;13.63;;;19.50;98.00;;;;;;5028175;28;21211;-53
2021/06/08 05:20:40;;;;;;;16.00;14.60;;;19.40;97.90;;;;;;5030586;28;20626;-53
2021/06/08 05:23:07;;;;;;;15.70;14.40;;;19.50;97.90;;;;;;5049085;28;20662;-51
2021/06/08 05:25:34;;;;;;;17.47;15.40;;;19.50;97.90;;;;;;5029331;28;20692;-52
2021/06/08 05:28:01;;;;;;;16.03;14.50;;;19.50;97.90;;;;;;5028533;28;20630;-52
2021/06/08 05:30:28;;;;;;;15.90;14.33;;;19.50;97.90;;;;;;5029294;28;20627;-53
2021/06/08 05:32:54;;;;;;;14.93;13.73;;;19.50;97.80;;;;;;5028441;28;21024;-53
2021/06/08 05:35:25;;;;;;;15.03;13.83;;;19.50;97.80;;;;;;5028352;28;20631;-52
2021/06/08 05:37:53;;;;;;;16.60;14.90;;;19.50;97.70;;;;;;5029469;28;21233;-52
2021/06/08 05:40:22;;;;;;;14.83;13.43;;;19.50;97.70;;;;;;5029607;28;20653;-52
2021/06/08 05:42:49;;;;;;;13.33;12.23;;;19.60;97.70;;;;;;5042752;28;20661;-52
2021/06/08 05:45:16;;;;;;;15.47;14.17;;;19.60;97.70;;;;;;5046563;28;20672;-51
2021/06/08 05:47:42;;;;;;;14.70;13.43;;;19.60;97.70;;;;;;5031397;28;20947;-52
2021/06/08 05:50:09;;;;;;;17.50;15.07;;;19.60;97.60;;;;;;5048632;28;20687;-51
2021/06/08 05:52:36;;;;;;;15.10;13.90;;;19.60;97.60;;;;;;5049060;28;20713;-52
2021/06/08 05:55:06;;;;;;;15.90;14.60;;;19.60;97.50;;;;;;5048125;28;20685;-50
2021/06/08 05:57:33;;;;;;;16.20;14.70;;;19.60;97.50;;;;;;5048808;28;21048;-52
2021/06/08 06:00:04;;;;;;;15.67;14.27;;;19.60;97.50;;;;;;5048449;28;20641;-52
2021/06/08 06:02:33;;;;;;;17.30;15.63;;;19.60;97.50;;;;;;5048584;28;20920;-51
2021/06/08 06:04:59;;;;;;;16.90;15.60;;;19.70;97.60;;;;;;5048334;28;20700;-52
2021/06/08 06:07:26;;;;;;;16.37;14.87;;;19.70;97.60;;;;;;5048348;28;20618;-51
2021/06/08 06:09:53;;;;;;;15.23;14.00;;;19.70;97.50;;;;;;5041697;28;21266;-52
2021/06/08 06:12:21;;;;;;;13.67;12.57;;;19.70;97.50;;;;;;5032120;28;20631;-52
2021/06/08 06:14:49;;;;;;;14.10;13.07;;;19.70;97.40;;;;;;5031946;28;20679;-52
2021/06/08 06:17:16;;;;;;;15.97;14.60;;;19.70;97.40;;;;;;5032458;28;20627;-52
2021/06/08 06:19:43;;;;;;;15.97;14.57;;;19.80;97.40;;;;;;5032442;28;20631;-52
2021/06/08 06:22:10;;;;;;;14.17;13.07;;;19.80;97.50;;;;;;5032074;28;21023;-53
2021/06/08 06:24:37;;;;;;;15.23;13.73;;;19.80;97.50;;;;;;5032331;28;20701;-51
2021/06/08 06:27:05;;;;;;;16.70;15.10;;;19.80;97.50;;;;;;5032455;28;20638;-51
2021/06/08 06:29:33;;;;;;;14.37;13.20;;;19.80;97.40;;;;;;5032287;28;21233;-51
2021/06/08 06:32:00;;;;;;;15.97;14.47;;;19.80;97.40;;;;;;5032338;28;20765;-51
2021/06/08 06:34:26;;;;;;;15.10;13.83;;;19.80;97.40;;;;;;5032150;28;20667;-51
2021/06/08 06:36:56;;;;;;;14.90;13.80;;;19.90;97.40;;;;;;5032024;28;20973;-51
2021/06/08 06:39:24;;;;;;;15.80;14.40;;;19.90;97.30;;;;;;5032067;28;20634;-51
2021/06/08 06:41:52;;;;;;;14.80;13.50;;;19.90;97.20;;;;;;5031898;28;20676;-52
2021/06/08 06:44:19;;;;;;;16.63;14.47;;;19.90;97.30;;;;;;5032080;28;20732;-51
2021/06/08 06:46:47;;;;;;;15.80;14.40;;;19.90;97.20;;;;;;5032019;28;20692;-51
2021/06/08 06:49:14;;;;;;;15.63;14.40;;;20.00;97.20;;;;;;5031620;28;20657;-51
2021/06/08 06:51:42;;;;;;;16.83;15.10;;;20.00;97.20;;;;;;5031761;28;20703;-51
2021/06/08 06:54:09;;;;;;;15.37;14.07;;;20.00;97.20;;;;;;5031193;28;21251;-50
2021/06/08 06:56:36;;;;;;;16.53;14.93;;;20.00;97.20;;;;;;5031864;28;20648;-52
2021/06/08 06:59:04;;;;;;;15.10;13.70;;;20.00;97.30;;;;;;5031186;28;21049;-52
2021/06/08 07:01:30;;;;;;;13.83;12.70;;;20.00;97.30;;;;;;5031500;28;20673;-52
2021/06/08 07:04:00;;;;;;;15.00;13.70;;;20.00;97.30;;;;;;5031275;28;21023;-52
2021/06/08 07:06:28;;;;;;;16.30;14.90;;;20.00;97.20;;;;;;5030779;28;20950;-53
2021/06/08 07:08:55;;;;;;;15.33;13.90;;;20.10;97.20;;;;;;5031168;28;20703;-52
2021/06/08 07:11:22;;;;;;;15.60;14.30;;;20.10;97.10;;;;;;5030742;28;21128;-52
2021/06/08 07:13:49;;;;;;;16.50;15.20;;;20.10;97.10;;;;;;5031403;28;20663;-52
2021/06/08 07:16:16;;;;;;;16.03;14.73;;;20.10;97.00;;;;;;5030791;28;20618;-52
2021/06/08 07:18:47;;;;;;;15.33;14.10;;;20.10;97.00;;;;;;5029734;28;20657;-52
2021/06/08 07:21:16;;;;;;;16.07;14.70;;;20.20;97.10;;;;;;5031126;28;20631;-51
2021/06/08 07:23:43;;;;;;;15.00;13.70;;;20.20;97.00;;;;;;5030152;28;20674;-52
2021/06/08 07:26:11;;;;;;;14.60;13.50;;;20.20;97.30;;;;;;5030767;28;20626;-51
2021/06/08 07:28:38;;;;;;;15.43;13.93;;;20.20;96.90;;;;;;5029061;28;20950;-54
2021/06/08 07:31:05;;;;;;;14.63;13.23;;;20.20;97.10;;;;;;5031248;28;20631;-54
2021/06/08 07:33:34;;;;;;;14.77;13.57;;;20.30;97.00;;;;;;5029650;28;20827;-54
2021/06/08 07:36:03;;;;;;;16.07;14.53;;;20.30;96.90;;;;;;5031050;28;21179;-54
2021/06/08 07:38:34;;;;;;;14.73;13.60;;;20.30;96.80;;;;;;5030866;28;20631;-54
2021/06/08 07:41:02;;;;;;;14.20;13.20;;;20.40;96.80;;;;;;5030830;28;20635;-54
2021/06/08 07:43:31;;;;;;;16.07;14.57;;;20.40;96.80;;;;;;5030441;28;20785;-55
2021/06/08 07:45:58;;;;;;;15.43;14.23;;;20.40;96.80;;;;;;5030556;28;20668;-54
2021/06/08 07:48:27;;;;;;;15.37;14.17;;;20.50;96.80;;;;;;5030414;28;20674;-54
2021/06/08 07:50:54;;;;;;;14.80;13.60;;;20.60;96.90;;;;;;5031624;28;20619;-55
2021/06/08 07:53:22;;;;;;;14.70;13.50;;;20.60;96.80;;;;;;5030583;28;20654;-53
2021/06/08 07:55:50;;;;;;;15.40;14.07;;;20.60;96.70;;;;;;5030499;28;21241;-54
2021/06/08 07:58:22;;;;;;;15.87;14.60;;;20.70;96.80;;;;;;5030340;28;20624;-53
2021/06/08 08:00:49;;;;;;;15.70;14.43;;;20.80;96.70;;;;;;5028681;28;21175;-54
2021/06/08 08:03:26;;;;;;;15.10;13.83;;;20.80;96.30;;;;;;5030571;28;20651;-54
2021/06/08 08:05:54;;;;;;;14.40;13.10;;;20.90;96.30;;;;;;5029020;28;21250;-54
2021/06/08 08:08:21;;;;;;;13.67;12.57;;;20.90;96.20;;;;;;5029834;28;20645;-52
2021/06/08 08:10:49;;;;;;;15.80;14.37;;;20.90;96.10;;;;;;5027692;28;21053;-50
2021/06/08 08:13:21;;;;;;;15.43;14.13;;;21.00;95.80;;;;;;5029289;28;20711;-50
2021/06/08 08:15:48;;;;;;;14.43;13.23;;;21.00;95.90;;;;;;5029478;28;20713;-50
2021/06/08 08:18:15;;;;;;;15.73;14.33;;;21.10;95.70;;;;;;5029544;28;20796;-51
2021/06/08 08:20:45;;;;;;;14.10;13.00;;;21.10;95.80;;;;;;5030247;28;20696;-50
2021/06/08 08:23:12;;;;;;;14.00;12.70;;;21.20;95.90;;;;;;5029369;28;20655;-50
2021/06/08 08:25:39;;;;;;;15.40;13.80;;;21.20;95.80;;;;;;5029758;28;20665;-50
2021/06/08 08:28:07;;;;;;;14.90;13.57;;;21.30;95.90;;;;;;5029698;28;20631;-51
2021/06/08 08:30:34;;;;;;;20.60;18.77;;;21.30;95.60;;;;;;5029901;28;20700;-52
2021/06/08 08:33:01;;;;;;;14.77;13.37;;;21.40;95.60;;;;;;5029829;28;20662;-52
2021/06/08 08:35:28;;;;;;;14.93;13.73;;;21.40;95.50;;;;;;5027763;28;20694;-51
2021/06/08 08:37:55;;;;;;;13.97;12.70;;;21.40;95.50;;;;;;5028687;28;20627;-52
2021/06/08 08:40:22;;;;;;;13.77;12.77;;;21.50;95.60;;;;;;5028700;28;20630;-51
2021/06/08 08:42:49;;;;;;;14.00;12.80;;;21.50;95.50;;;;;;5029857;28;21262;-52
2021/06/08 08:45:17;;;;;;;16.20;14.70;;;21.60;95.40;;;;;;5030056;28;20626;-52
2021/06/08 08:47:44;;;;;;;14.70;13.57;;;21.60;95.60;;;;;;5029129;28;20752;-51
2021/06/08 08:50:13;;;;;;;15.13;13.50;;;21.70;95.20;;;;;;5029445;28;20623;-51
2021/06/08 08:52:40;;;;;;;14.93;13.53;;;21.70;95.20;;;;;;5030203;28;20623;-51
2021/06/08 08:55:08;;;;;;;14.60;13.30;;;21.80;95.20;;;;;;5029871;28;20786;-51
2021/06/08 08:57:34;;;;;;;14.40;13.20;;;21.80;95.00;;;;;;5029890;28;20945;-52
2021/06/08 09:00:03;;;;;;;14.70;13.40;;;21.90;95.00;;;;;;5030148;28;20627;-52
2021/06/08 09:02:32;;;;;;;15.43;14.00;;;22.00;95.00;;;;;;5030230;28;20693;-51
2021/06/08 09:05:00;;;;;;;15.80;14.60;;;22.00;94.80;;;;;;5030029;28;20630;-51
2021/06/08 09:07:27;;;;;;;15.03;13.63;;;22.10;94.70;;;;;;5029529;28;20968;-52
2021/06/08 09:09:54;;;;;;;14.70;13.60;;;22.10;94.80;;;;;;5029504;28;21179;-52
2021/06/08 09:12:21;;;;;;;15.53;14.37;;;22.20;94.70;;;;;;5029748;28;20677;-51
2021/06/08 09:14:48;;;;;;;14.70;13.50;;;22.30;94.60;;;;;;5029621;28;20671;-51
2021/06/08 09:17:17;;;;;;;13.93;12.57;;;22.40;94.40;;;;;;5028949;28;20623;-52
2021/06/08 09:19:45;;;;;;;14.13;12.93;;;22.40;94.30;;;;;;5029913;28;20661;-51
2021/06/08 09:22:14;;;;;;;16.07;14.87;;;22.50;94.20;;;;;;5029351;28;20631;-51
2021/06/08 09:24:42;;;;;;;15.37;14.17;;;22.50;94.00;;;;;;5029245;28;20651;-51
2021/06/08 09:27:09;;;;;;;14.27;12.93;;;22.60;93.80;;;;;;5029382;28;20622;-53
2021/06/08 09:29:37;;;;;;;13.60;12.50;;;22.60;93.90;;;;;;5029604;28;20757;-50
2021/06/08 09:32:14;;;;;;;15.20;13.90;;;22.60;94.00;;;;;;5029622;28;20619;-51
2021/06/08 09:34:45;;;;;;;13.80;12.80;;;22.70;93.90;;;;;;5029133;28;20700;-51
2021/06/08 09:37:12;;;;;;;15.37;14.17;;;22.70;93.70;;;;;;5029620;28;20630;-51
2021/06/08 09:39:47;;;;;;;14.27;13.07;;;22.80;93.50;;;;;;5029955;28;20978;-51
2021/06/08 09:42:24;;;;;;;15.93;14.63;;;22.80;93.60;;;;;;5029735;28;20634;-49
2021/06/08 09:44:51;;;;;;;13.67;12.67;;;22.80;93.70;;;;;;5026988;28;20630;-50
2021/06/08 09:47:28;;;;;;;16.40;14.90;;;22.80;93.60;;;;;;5032982;28;21241;-50
2021/06/08 09:49:58;;;;;;;15.33;14.03;;;22.90;93.70;;;;;;5033192;28;20779;-50
2021/06/08 09:52:25;;;;;;;14.90;13.53;;;22.90;93.70;;;;;;5032735;28;20611;-50
2021/06/08 09:54:56;;;;;;;16.23;14.83;;;22.90;93.90;;;;;;5032908;28;21067;-52
2021/06/08 09:57:24;;;;;;;16.57;15.17;;;22.90;93.80;;;;;;5032482;28;20696;-51
2021/06/08 09:59:52;;;;;;;14.73;13.33;;;22.90;93.70;;;;;;5033338;28;20668;-51
2021/06/08 10:02:26;;;;;;;16.17;14.83;;;23.00;93.70;;;;;;5033080;28;21143;-50
2021/06/08 10:04:54;;;;;;;15.43;14.30;;;23.00;93.80;;;;;;5032949;28;20634;-50
2021/06/08 10:07:31;;;;;;;16.40;15.10;;;23.00;93.80;;;;;;5033064;28;20696;-50
2021/06/08 10:10:02;;;;;;;16.33;14.83;;;23.00;93.90;;;;;;5031007;28;20625;-51
2021/06/08 10:12:29;;;;;;;17.20;15.70;;;23.10;93.80;;;;;;5032792;28;20618;-51
2021/06/08 10:15:08;;;;;;;17.80;16.20;;;23.10;93.70;;;;;;5032163;28;20740;-51
2021/06/08 10:17:35;;;;;;;15.40;14.20;;;23.10;93.80;;;;;;5030988;28;20665;-51
2021/06/08 10:20:20;;;;;;;16.27;14.97;;;23.10;93.70;;;;;;5032288;28;20639;-50
2021/06/08 10:22:48;;;;;;;16.37;14.80;;;23.10;93.80;;;;;;5032070;28;20663;-51
2021/06/08 10:25:15;;;;;;;16.33;14.80;;;23.20;93.50;;;;;;5031116;28;21018;-51
2021/06/08 10:27:42;;;;;;;16.97;15.57;;;23.10;93.50;;;;;;5030478;28;20658;-50
2021/06/08 10:30:09;;;;;;;15.00;13.90;;;23.20;93.60;;;;;;5032619;28;20627;-51
2021/06/08 10:32:36;;;;;;;16.87;15.57;;;23.20;93.50;;;;;;5032229;28;20626;-50
2021/06/08 10:35:04;;;;;;;15.87;14.67;;;23.20;93.30;;;;;;5032754;28;21079;-51
2021/06/08 10:37:31;;;;;;;15.27;14.13;;;23.20;93.30;;;;;;5032207;28;20682;-50
2021/06/08 10:40:00;;;;;;;15.50;14.40;;;23.30;93.50;;;;;;5031729;28;21038;-49
2021/06/08 10:42:27;;;;;;;15.57;14.40;;;23.30;93.30;;;;;;5030377;28;21270;-51
2021/06/08 10:45:01;;;;;;;17.27;15.50;;;23.30;93.30;;;;;;5031948;28;20631;-50
2021/06/08 10:47:34;;;;;;;17.20;15.80;;;23.40;93.20;;;;;;5032153;28;20638;-52
2021/06/08 10:50:00;;;;;;;16.07;14.80;;;23.40;93.20;;;;;;5031829;28;20627;-53
2021/06/08 10:52:28;;;;;;;15.60;14.50;;;23.40;93.10;;;;;;5032155;28;20792;-52
2021/06/08 10:54:54;;;;;;;17.43;15.93;;;23.40;93.00;;;;;;5031505;28;20654;-49
2021/06/08 10:57:23;;;;;;;14.87;13.67;;;23.50;92.90;;;;;;5030771;28;20631;-48
2021/06/08 10:59:50;;;;;;;14.53;13.50;;;23.60;92.50;;;;;;5032096;28;21249;-50
2021/06/08 11:02:44;;;;;;;12.90;11.73;;;23.60;92.20;;;;;;5032554;28;20631;-51
2021/06/08 11:05:11;;;;;;;16.53;15.23;;;23.60;92.40;;;;;;5031861;28;21040;-51
2021/06/08 11:07:52;;;;;;;14.50;13.43;;;23.70;92.20;;;;;;5031303;28;20726;-51
2021/06/08 11:10:54;;;;;;;15.63;14.33;;;23.70;92.10;;;;;;5030788;28;20668;-51
2021/06/08 11:13:51;;;;;;;17.50;15.87;;;23.70;92.20;;;;;;5026934;28;21300;-51
2021/06/08 11:16:33;;;;;;;15.07;13.87;;;23.80;92.10;;;;;;5031096;28;20655;-51
2021/06/08 11:19:00;;;;;;;14.13;13.03;;;23.80;91.80;;;;;;5031809;28;20701;-50
2021/06/08 11:21:28;;;;;;;15.17;13.87;;;23.90;91.50;;;;;;5031506;28;20634;-51
2021/06/08 11:23:55;;;;;;;13.63;12.53;;;23.90;91.60;;;;;;5031377;28;21012;-51
2021/06/08 11:26:47;;;;;;;14.53;13.30;;;23.90;91.60;;;;;;5030931;28;21233;-51
2021/06/08 11:29:46;;;;;;;13.67;12.43;;;24.00;91.60;;;;;;5028894;28;20709;-52
2021/06/08 11:32:47;;;;;;;16.50;15.20;;;24.00;91.10;;;;;;5030942;28;21198;-52
2021/06/08 11:35:22;;;;;;;14.60;13.40;;;24.00;90.80;;;;;;5031739;28;20704;-53
2021/06/08 11:37:54;;;;;;;14.70;13.50;;;24.00;90.80;;;;;;5031340;28;21250;-53
2021/06/08 11:40:58;;;;;;;13.40;12.17;;;24.00;90.90;;;;;;5031152;28;20708;-50
2021/06/08 11:44:04;;;;;;;13.90;12.73;;;24.00;90.80;;;;;;5030555;28;20655;-51
2021/06/08 11:46:48;;;;;;;14.93;13.73;;;24.00;90.90;;;;;;5030627;28;20623;-49
2021/06/08 11:49:17;;;;;;;14.53;13.43;;;24.00;90.90;;;;;;5028750;28;20635;-50
2021/06/08 11:52:00;;;;;;;16.80;15.50;;;24.00;91.00;;;;;;5030833;28;20650;-51
2021/06/08 11:54:44;;;;;;;14.77;13.60;;;24.10;90.90;;;;;;5029167;28;20717;-51
2021/06/08 11:57:12;;;;;;;14.33;13.20;;;24.10;90.70;;;;;;5029970;28;20623;-50
2021/06/08 11:59:57;;;;;;;13.97;12.67;;;24.10;90.80;;;;;;5030833;28;21160;-50
2021/06/08 12:02:30;;;;;;;16.63;15.00;;;24.20;90.80;;;;;;5030341;28;20736;-50
2021/06/08 12:05:13;;;;;;;15.97;14.77;;;24.20;90.60;;;;;;5030676;28;20634;-50
2021/06/08 12:07:44;;;;;;;16.30;15.10;;;24.30;90.30;;;;;;5030643;28;20681;-50
2021/06/08 12:10:11;;;;;;;14.53;13.27;;;24.30;90.10;;;;;;5029905;28;20937;-51
2021/06/08 12:12:47;;;;;;;17.20;15.80;;;24.30;89.90;;;;;;5030057;28;20679;-50
2021/06/08 12:15:22;;;;;;;16.20;15.00;;;24.40;89.90;;;;;;5028652;28;21254;-51
2021/06/08 12:18:03;;;;;;;17.53;14.70;;;24.40;89.40;;;;;;5030098;28;21062;-49
2021/06/08 12:20:31;;;;;;;15.03;13.83;;;24.40;89.50;;;;;;5029988;28;20626;-49
2021/06/08 12:22:58;;;;;;;15.13;14.00;;;24.40;89.80;;;;;;5029581;28;20667;-50
2021/06/08 12:25:24;;;;;;;16.40;15.20;;;24.50;90.00;;;;;;5029838;28;21100;-51
2021/06/08 12:27:51;;;;;;;16.17;14.90;;;24.50;89.90;;;;;;5029333;28;20676;-51
2021/06/08 12:30:21;;;;;;;15.17;13.93;;;24.50;89.60;;;;;;5029912;28;20626;-51
2021/06/08 12:33:07;;;;;;;14.60;13.40;;;24.50;89.20;;;;;;5029394;28;20700;-50
2021/06/08 12:35:35;;;;;;;16.83;15.23;;;24.50;89.00;;;;;;5030009;28;20659;-51
2021/06/08 12:38:14;;;;;;;14.63;13.53;;;24.60;88.80;;;;;;5029417;28;20619;-51